createdAt,value
2017-06-13T00:00:25.740Z,0
2017-06-13T00:01:26.462Z,0
2017-06-13T00:02:27.189Z,0
2017-06-13T00:03:27.913Z,0
2017-06-13T00:04:28.638Z,0
2017-06-13T00:05:29.358Z,0
2017-06-13T00:06:30.086Z,0
2017-06-13T00:07:30.834Z,0
2017-06-13T00:08:31.561Z,0
2017-06-13T00:09:32.284Z,0
2017-06-13T00:10:33.007Z,0
2017-06-13T00:11:33.732Z,0
2017-06-13T00:12:34.458Z,0
2017-06-13T00:13:35.180Z,0
2017-06-13T00:14:35.905Z,0
2017-06-13T00:15:36.629Z,0
2017-06-13T00:16:37.352Z,0
2017-06-13T00:17:38.080Z,0
2017-06-13T00:18:38.802Z,0
2017-06-13T00:19:39.528Z,0
2017-06-13T00:20:40.253Z,0
2017-06-13T00:21:40.979Z,0
2017-06-13T00:22:41.701Z,0
2017-06-13T00:23:42.451Z,0
2017-06-13T00:24:43.174Z,0
2017-06-13T00:25:43.899Z,0
2017-06-13T00:26:44.625Z,0
2017-06-13T00:27:45.350Z,0
2017-06-13T00:28:46.100Z,0
2017-06-13T00:29:46.821Z,0
2017-06-13T00:30:47.546Z,0
2017-06-13T00:31:48.292Z,0
2017-06-13T00:32:49.014Z,0
2017-06-13T00:33:49.734Z,0
2017-06-13T00:34:50.457Z,0
2017-06-13T00:35:51.177Z,0
2017-06-13T00:36:51.901Z,0
2017-06-13T00:37:52.624Z,0
2017-06-13T00:38:53.348Z,0
2017-06-13T00:39:54.070Z,0
2017-06-13T00:40:54.790Z,0
2017-06-13T00:41:55.511Z,0
2017-06-13T00:42:56.257Z,0
2017-06-13T00:43:56.977Z,0
2017-06-13T00:44:57.698Z,0
2017-06-13T00:45:58.423Z,0
2017-06-13T00:46:59.144Z,0
2017-06-13T00:47:59.873Z,0
2017-06-13T00:49:00.611Z,0
2017-06-13T00:50:01.333Z,0
2017-06-13T00:51:02.056Z,0
2017-06-13T00:52:02.778Z,0
2017-06-13T00:53:03.498Z,0
2017-06-13T00:54:04.222Z,0
2017-06-13T00:55:04.944Z,0
2017-06-13T00:56:05.667Z,0
2017-06-13T00:57:06.392Z,0
2017-06-13T00:58:07.112Z,0
2017-06-13T00:59:07.832Z,0
2017-06-13T01:00:08.555Z,0
2017-06-13T01:01:09.276Z,0
2017-06-13T01:02:09.997Z,0
2017-06-13T01:03:10.743Z,0
2017-06-13T01:04:11.466Z,0
2017-06-13T01:05:12.189Z,0
2017-06-13T01:06:12.909Z,0
2017-06-13T01:07:13.633Z,0
2017-06-13T01:08:14.354Z,0
2017-06-13T01:09:15.077Z,0
2017-06-13T01:10:15.796Z,0
2017-06-13T01:11:16.515Z,0
2017-06-13T01:12:17.239Z,0
2017-06-13T01:13:17.962Z,0
2017-06-13T01:14:18.683Z,0
2017-06-13T01:15:19.404Z,0
2017-06-13T01:16:20.124Z,0
2017-06-13T01:17:20.847Z,0
2017-06-13T01:18:21.570Z,0
2017-06-13T01:19:22.292Z,0
2017-06-13T01:20:23.016Z,0
2017-06-13T01:21:23.739Z,0
2017-06-13T01:22:24.462Z,0
2017-06-13T01:23:25.180Z,0
2017-06-13T01:24:25.904Z,0
2017-06-13T01:25:26.629Z,0
2017-06-13T01:26:27.352Z,0
2017-06-13T01:27:28.073Z,0
2017-06-13T01:28:28.820Z,0
2017-06-13T01:29:29.540Z,0
2017-06-13T01:30:30.268Z,0
2017-06-13T01:31:30.990Z,0
2017-06-13T01:32:31.708Z,0
2017-06-13T01:33:32.430Z,0
2017-06-13T01:34:33.152Z,0
2017-06-13T01:35:33.877Z,0
2017-06-13T01:36:34.598Z,0
2017-06-13T01:37:35.319Z,0
2017-06-13T01:38:36.043Z,0
2017-06-13T01:39:36.762Z,0
2017-06-13T01:40:37.486Z,0
2017-06-13T01:41:38.211Z,0
2017-06-13T01:42:38.932Z,0
2017-06-13T01:43:39.651Z,0
2017-06-13T01:44:40.373Z,0
2017-06-13T01:45:41.096Z,0
2017-06-13T01:46:41.816Z,0
2017-06-13T01:47:42.539Z,0
2017-06-13T01:48:43.259Z,0
2017-06-13T01:49:43.980Z,0
2017-06-13T01:50:44.705Z,0
2017-06-13T01:51:45.427Z,0
2017-06-13T01:52:46.148Z,0
2017-06-13T01:53:46.868Z,0
2017-06-13T01:54:47.592Z,0
2017-06-13T01:55:48.317Z,0
2017-06-13T01:56:49.037Z,0
2017-06-13T01:57:49.760Z,0
2017-06-13T01:58:50.479Z,0
2017-06-13T01:59:51.200Z,0
2017-06-13T02:00:51.921Z,0
2017-06-13T02:01:52.643Z,0
2017-06-13T02:02:53.364Z,0
2017-06-13T02:03:54.088Z,0
2017-06-13T02:04:54.807Z,0
2017-06-13T02:05:55.530Z,0
2017-06-13T02:06:56.253Z,0
2017-06-13T02:07:56.974Z,0
2017-06-13T02:08:57.694Z,0
2017-06-13T02:09:58.416Z,0
2017-06-13T02:10:59.139Z,0
2017-06-13T02:11:59.859Z,0
2017-06-13T02:13:00.580Z,0
2017-06-13T02:14:01.305Z,0
2017-06-13T02:15:02.023Z,0
2017-06-13T02:16:02.746Z,0
2017-06-13T02:17:03.466Z,0
2017-06-13T02:18:04.191Z,0
2017-06-13T02:19:04.912Z,0
2017-06-13T02:20:05.629Z,0
2017-06-13T02:21:06.354Z,0
2017-06-13T02:22:07.072Z,0
2017-06-13T02:23:07.795Z,0
2017-06-13T02:24:08.518Z,0
2017-06-13T02:25:09.239Z,0
2017-06-13T02:26:09.964Z,0
2017-06-13T02:27:10.687Z,0
2017-06-13T02:28:11.405Z,0
2017-06-13T02:29:12.128Z,0
2017-06-13T02:30:12.851Z,0
2017-06-13T02:31:13.576Z,4
2017-06-13T02:32:14.296Z,4
2017-06-13T02:33:15.017Z,0
2017-06-13T02:34:15.763Z,0
2017-06-13T02:35:16.484Z,0
2017-06-13T02:36:17.205Z,4
2017-06-13T02:37:17.927Z,4
2017-06-13T02:38:18.650Z,0
2017-06-13T02:39:19.373Z,4
2017-06-13T02:40:20.095Z,4
2017-06-13T02:41:20.817Z,4
2017-06-13T02:42:21.540Z,4
2017-06-13T02:43:22.259Z,8
2017-06-13T02:44:22.983Z,8
2017-06-13T02:45:23.706Z,8
2017-06-13T02:46:24.426Z,8
2017-06-13T02:47:25.144Z,8
2017-06-13T02:48:25.869Z,12
2017-06-13T02:49:26.590Z,12
2017-06-13T02:50:27.312Z,12
2017-06-13T02:51:28.036Z,12
2017-06-13T02:52:28.760Z,16
2017-06-13T02:53:29.483Z,16
2017-06-13T02:54:30.204Z,16
2017-06-13T02:55:30.928Z,24
2017-06-13T02:56:31.652Z,24
2017-06-13T02:57:32.414Z,32
2017-06-13T02:58:33.136Z,32
2017-06-13T02:59:33.863Z,32
2017-06-13T03:00:34.583Z,40
2017-06-13T03:01:35.308Z,44
2017-06-13T03:02:36.033Z,52
2017-06-13T03:03:36.758Z,52
2017-06-13T03:04:37.480Z,60
2017-06-13T03:05:38.207Z,64
2017-06-13T03:06:38.926Z,64
2017-06-13T03:07:39.647Z,68
2017-06-13T03:08:40.370Z,72
2017-06-13T03:09:41.097Z,80
2017-06-13T03:10:41.818Z,76
2017-06-13T03:11:42.538Z,72
2017-06-13T03:12:43.263Z,68
2017-06-13T03:13:44.011Z,60
2017-06-13T03:14:44.733Z,56
2017-06-13T03:15:45.479Z,56
2017-06-13T03:16:46.226Z,64
2017-06-13T03:17:46.949Z,76
2017-06-13T03:18:47.674Z,92
2017-06-13T03:19:48.395Z,112
2017-06-13T03:20:49.121Z,136
2017-06-13T03:21:49.845Z,164
2017-06-13T03:22:50.571Z,184
2017-06-13T03:23:51.319Z,212
2017-06-13T03:24:52.042Z,236
2017-06-13T03:25:52.768Z,256
2017-06-13T03:26:53.516Z,272
2017-06-13T03:27:54.265Z,284
2017-06-13T03:28:54.987Z,300
2017-06-13T03:29:55.713Z,324
2017-06-13T03:30:56.477Z,352
2017-06-13T03:31:57.203Z,372
2017-06-13T03:32:57.929Z,372
2017-06-13T03:33:58.656Z,372
2017-06-13T03:34:59.382Z,376
2017-06-13T03:36:00.105Z,376
2017-06-13T03:37:00.833Z,384
2017-06-13T03:38:01.556Z,372
2017-06-13T03:39:02.283Z,368
2017-06-13T03:40:03.032Z,380
2017-06-13T03:41:03.753Z,428
2017-06-13T03:42:04.483Z,488
2017-06-13T03:43:05.207Z,532
2017-06-13T03:44:05.933Z,544
2017-06-13T03:45:06.656Z,588
2017-06-13T03:46:07.382Z,632
2017-06-13T03:47:08.106Z,636
2017-06-13T03:48:08.831Z,620
2017-06-13T03:49:09.557Z,644
2017-06-13T03:50:10.286Z,672
2017-06-13T03:51:11.008Z,704
2017-06-13T03:52:11.731Z,708
2017-06-13T03:53:12.458Z,716
2017-06-13T03:54:13.183Z,768
2017-06-13T03:55:13.908Z,856
2017-06-13T03:56:14.632Z,904
2017-06-13T03:57:15.358Z,908
2017-06-13T03:58:16.085Z,928
2017-06-13T03:59:16.808Z,936
2017-06-13T04:00:17.536Z,960
2017-06-13T04:01:18.259Z,984
2017-06-13T04:02:18.987Z,1048
2017-06-13T04:03:19.712Z,1112
2017-06-13T04:04:20.457Z,1176
2017-06-13T04:05:21.184Z,1228
2017-06-13T04:06:21.911Z,1296
2017-06-13T04:07:22.637Z,1392
2017-06-13T04:08:23.362Z,1468
2017-06-13T04:09:24.108Z,1556
2017-06-13T04:10:24.837Z,1616
2017-06-13T04:11:25.560Z,1656
2017-06-13T04:12:26.289Z,1660
2017-06-13T04:13:27.013Z,1688
2017-06-13T04:14:27.741Z,1752
2017-06-13T04:15:28.470Z,1840
2017-06-13T04:16:29.196Z,1904
2017-06-13T04:17:29.922Z,1920
2017-06-13T04:18:30.649Z,1924
2017-06-13T04:19:31.374Z,1912
2017-06-13T04:20:32.103Z,1900
2017-06-13T04:21:32.827Z,1868
2017-06-13T04:22:33.553Z,1896
2017-06-13T04:23:34.278Z,1928
2017-06-13T04:24:35.006Z,2020
2017-06-13T04:25:35.732Z,2036
2017-06-13T04:26:36.459Z,2000
2017-06-13T04:27:37.188Z,2016
2017-06-13T04:28:37.914Z,2096
2017-06-13T04:29:38.643Z,2120
2017-06-13T04:30:39.368Z,2060
2017-06-13T04:31:40.097Z,2000
2017-06-13T04:32:40.825Z,1952
2017-06-13T04:33:41.575Z,1932
2017-06-13T04:34:42.301Z,1920
2017-06-13T04:35:43.028Z,1912
2017-06-13T04:36:43.756Z,1876
2017-06-13T04:37:44.482Z,1912
2017-06-13T04:38:45.212Z,1952
2017-06-13T04:39:45.936Z,1968
2017-06-13T04:40:46.664Z,1952
2017-06-13T04:41:47.391Z,2008
2017-06-13T04:42:48.141Z,2048
2017-06-13T04:43:48.865Z,2044
2017-06-13T04:44:49.592Z,2088
2017-06-13T04:45:50.317Z,2084
2017-06-13T04:46:51.046Z,2156
2017-06-13T04:47:51.772Z,2172
2017-06-13T04:48:52.498Z,2172
2017-06-13T04:49:53.228Z,2196
2017-06-13T04:50:53.954Z,2224
2017-06-13T04:51:54.681Z,2244
2017-06-13T04:52:55.430Z,2272
2017-06-13T04:53:56.156Z,2292
2017-06-13T04:54:56.890Z,2316
2017-06-13T04:55:57.639Z,2332
2017-06-13T04:56:58.369Z,2336
2017-06-13T04:57:59.097Z,2332
2017-06-13T04:58:59.824Z,2340
2017-06-13T05:00:00.551Z,2360
2017-06-13T05:01:01.278Z,2380
2017-06-13T05:02:02.010Z,2408
2017-06-13T05:03:02.736Z,2424
2017-06-13T05:04:03.462Z,2448
2017-06-13T05:05:04.194Z,2480
2017-06-13T05:06:04.921Z,2484
2017-06-13T05:07:05.649Z,2524
2017-06-13T05:08:06.377Z,2540
2017-06-13T05:09:07.106Z,2540
2017-06-13T05:10:07.860Z,2552
2017-06-13T05:11:08.586Z,2540
2017-06-13T05:12:09.316Z,2544
2017-06-13T05:13:10.066Z,2556
2017-06-13T05:14:10.794Z,2568
2017-06-13T05:15:11.525Z,2516
2017-06-13T05:16:12.253Z,2616
2017-06-13T05:17:12.979Z,2644
2017-06-13T05:18:13.709Z,2672
2017-06-13T05:19:14.436Z,2724
2017-06-13T05:20:15.165Z,2748
2017-06-13T05:21:15.894Z,2760
2017-06-13T05:22:16.621Z,2764
2017-06-13T05:23:17.351Z,2804
2017-06-13T05:24:18.079Z,2848
2017-06-13T05:25:18.808Z,2916
2017-06-13T05:26:19.538Z,2936
2017-06-13T05:27:20.265Z,2960
2017-06-13T05:28:20.994Z,2944
2017-06-13T05:29:21.745Z,3004
2017-06-13T05:30:22.474Z,2992
2017-06-13T05:31:23.204Z,2972
2017-06-13T05:32:23.937Z,3204
2017-06-13T05:33:24.659Z,3024
2017-06-13T05:34:25.388Z,3044
2017-06-13T05:35:26.120Z,2912
2017-06-13T05:36:26.870Z,3080
2017-06-13T05:37:27.601Z,3128
2017-06-13T05:38:28.331Z,3108
2017-06-13T05:39:29.056Z,2852
2017-06-13T05:40:29.785Z,3056
2017-06-13T05:41:30.515Z,3332
2017-06-13T05:42:31.243Z,3428
2017-06-13T05:43:31.973Z,3400
2017-06-13T05:44:32.701Z,3764
2017-06-13T05:45:33.431Z,3888
2017-06-13T05:46:34.157Z,3848
2017-06-13T05:47:34.884Z,3820
2017-06-13T05:48:35.613Z,3768
2017-06-13T05:49:36.363Z,3780
2017-06-13T05:50:37.112Z,3808
2017-06-13T05:51:37.840Z,3788
2017-06-13T05:52:38.569Z,3460
2017-06-13T05:53:39.297Z,3564
2017-06-13T05:54:40.026Z,3420
2017-06-13T05:55:40.757Z,3188
2017-06-13T05:56:41.487Z,3104
2017-06-13T05:57:42.217Z,3372
2017-06-13T05:58:42.944Z,3724
2017-06-13T05:59:43.675Z,4344
2017-06-13T06:00:44.403Z,4660
2017-06-13T06:01:45.133Z,4672
2017-06-13T06:02:45.863Z,4472
2017-06-13T06:03:46.591Z,4420
2017-06-13T06:04:47.318Z,4596
2017-06-13T06:05:48.053Z,5232
2017-06-13T06:06:48.781Z,5232
2017-06-13T06:07:49.509Z,4772
2017-06-13T06:08:50.237Z,4096
2017-06-13T06:09:50.970Z,3868
2017-06-13T06:10:51.721Z,4064
2017-06-13T06:11:52.449Z,4548
2017-06-13T06:12:53.179Z,5472
2017-06-13T06:13:53.906Z,6280
2017-06-13T06:14:54.637Z,6580
2017-06-13T06:15:55.365Z,5692
2017-06-13T06:16:56.097Z,4884
2017-06-13T06:17:56.826Z,4308
2017-06-13T06:18:57.555Z,3980
2017-06-13T06:19:58.284Z,3880
2017-06-13T06:20:59.014Z,3828
2017-06-13T06:21:59.741Z,4164
2017-06-13T06:23:00.472Z,4280
2017-06-13T06:24:01.202Z,5336
2017-06-13T06:25:01.934Z,5416
2017-06-13T06:26:02.665Z,4416
2017-06-13T06:27:03.392Z,4032
2017-06-13T06:28:04.120Z,4132
2017-06-13T06:29:04.848Z,4208
2017-06-13T06:30:05.578Z,4180
2017-06-13T06:31:06.306Z,4352
2017-06-13T06:32:07.038Z,4268
2017-06-13T06:33:07.767Z,3972
2017-06-13T06:34:08.497Z,3908
2017-06-13T06:35:09.226Z,4056
2017-06-13T06:36:09.957Z,4480
2017-06-13T06:37:10.686Z,4840
2017-06-13T06:38:11.413Z,4828
2017-06-13T06:39:12.145Z,4860
2017-06-13T06:40:12.875Z,5596
2017-06-13T06:41:13.603Z,6064
2017-06-13T06:42:14.332Z,5340
2017-06-13T06:43:15.064Z,4548
2017-06-13T06:44:15.818Z,4760
2017-06-13T06:45:16.547Z,4916
2017-06-13T06:46:17.276Z,5404
2017-06-13T06:47:18.004Z,6080
2017-06-13T06:48:18.733Z,7104
2017-06-13T06:49:19.462Z,7348
2017-06-13T06:50:20.192Z,6884
2017-06-13T06:51:20.923Z,6104
2017-06-13T06:52:21.654Z,6928
2017-06-13T06:53:22.381Z,6664
2017-06-13T06:54:23.114Z,5584
2017-06-13T06:55:23.845Z,5300
2017-06-13T06:56:24.578Z,5892
2017-06-13T06:57:25.304Z,7152
2017-06-13T06:58:26.038Z,8780
2017-06-13T06:59:26.769Z,8380
2017-06-13T07:00:27.498Z,7348
2017-06-13T07:01:28.231Z,7476
2017-06-13T07:02:28.961Z,8956
2017-06-13T07:03:29.689Z,9192
2017-06-13T07:04:30.419Z,8968
2017-06-13T07:05:31.151Z,8112
2017-06-13T07:06:31.880Z,6416
2017-06-13T07:07:32.612Z,6696
2017-06-13T07:08:33.343Z,8404
2017-06-13T07:09:34.076Z,8400
2017-06-13T07:10:34.806Z,8068
2017-06-13T07:11:35.557Z,9096
2017-06-13T07:12:36.290Z,9232
2017-06-13T07:13:37.019Z,9236
2017-06-13T07:14:37.747Z,9296
2017-06-13T07:15:38.481Z,9024
2017-06-13T07:16:39.212Z,8464
2017-06-13T07:17:39.968Z,8756
2017-06-13T07:18:40.699Z,9212
2017-06-13T07:19:41.430Z,9664
2017-06-13T07:20:42.161Z,9536
2017-06-13T07:21:42.890Z,8176
2017-06-13T07:22:43.622Z,8080
2017-06-13T07:23:44.357Z,9756
2017-06-13T07:24:45.085Z,9580
2017-06-13T07:25:45.816Z,9820
2017-06-13T07:26:46.546Z,8912
2017-06-13T07:27:47.277Z,7964
2017-06-13T07:28:48.010Z,7792
2017-06-13T07:29:48.743Z,8768
2017-06-13T07:30:49.472Z,8868
2017-06-13T07:31:50.204Z,9832
2017-06-13T07:32:50.935Z,9192
2017-06-13T07:33:51.667Z,8768
2017-06-13T07:34:52.398Z,10468
2017-06-13T07:35:53.132Z,11672
2017-06-13T07:36:53.863Z,10468
2017-06-13T07:37:54.615Z,8624
2017-06-13T07:38:55.371Z,8080
2017-06-13T07:39:56.102Z,8208
2017-06-13T07:40:56.835Z,7316
2017-06-13T07:41:57.563Z,7396
2017-06-13T07:42:58.292Z,8608
2017-06-13T07:43:59.026Z,10256
2017-06-13T07:44:59.755Z,11480
2017-06-13T07:46:00.486Z,10392
2017-06-13T07:47:01.238Z,8656
2017-06-13T07:48:01.970Z,8032
2017-06-13T07:49:02.703Z,8648
2017-06-13T07:50:03.431Z,8688
2017-06-13T07:51:04.185Z,10264
2017-06-13T07:52:04.917Z,11184
2017-06-13T07:53:05.670Z,12600
2017-06-13T07:54:06.402Z,14836
2017-06-13T07:55:07.135Z,14172
2017-06-13T07:56:07.868Z,11632
2017-06-13T07:57:08.625Z,8120
2017-06-13T07:58:09.356Z,6348
2017-06-13T07:59:10.084Z,5176
2017-06-13T08:00:10.820Z,4012
2017-06-13T08:01:11.576Z,3692
2017-06-13T08:02:12.304Z,3684
2017-06-13T08:03:13.038Z,4028
2017-06-13T08:04:13.767Z,4428
2017-06-13T08:05:14.523Z,4588
2017-06-13T08:06:15.251Z,4636
2017-06-13T08:07:15.981Z,4684
2017-06-13T08:08:16.733Z,5008
2017-06-13T08:09:17.464Z,5352
2017-06-13T08:10:18.196Z,5776
2017-06-13T08:11:18.926Z,6060
2017-06-13T08:12:19.657Z,6496
2017-06-13T08:13:20.386Z,7076
2017-06-13T08:14:21.141Z,7812
2017-06-13T08:15:21.873Z,8432
2017-06-13T08:16:22.604Z,8776
2017-06-13T08:17:23.332Z,9176
2017-06-13T08:18:24.063Z,9744
2017-06-13T08:19:24.792Z,10392
2017-06-13T08:20:25.525Z,11268
2017-06-13T08:21:26.255Z,12612
2017-06-13T08:22:26.986Z,14720
2017-06-13T08:23:27.744Z,18208
2017-06-13T08:24:28.474Z,17760
2017-06-13T08:25:29.204Z,16536
2017-06-13T08:26:29.937Z,48512
2017-06-13T08:27:30.672Z,24928
2017-06-13T08:28:31.406Z,30784
2017-06-13T08:29:32.139Z,29088
2017-06-13T08:30:32.875Z,29472
2017-06-13T08:31:33.607Z,72896
2017-06-13T08:32:34.342Z,42016
2017-06-13T08:33:35.081Z,38848
2017-06-13T08:34:35.816Z,25184
2017-06-13T08:35:36.554Z,16148
2017-06-13T08:36:37.293Z,12052
2017-06-13T08:37:38.024Z,8852
2017-06-13T08:38:38.762Z,7312
2017-06-13T08:39:39.494Z,7048
2017-06-13T08:40:40.227Z,7304
2017-06-13T08:41:40.963Z,7832
2017-06-13T08:42:41.696Z,8352
2017-06-13T08:43:42.428Z,8704
2017-06-13T08:44:43.161Z,8636
2017-06-13T08:45:43.914Z,8596
2017-06-13T08:46:44.627Z,8704
2017-06-13T08:47:45.360Z,8780
2017-06-13T08:48:46.092Z,8772
2017-06-13T08:49:46.824Z,8884
2017-06-13T08:50:47.557Z,9204
2017-06-13T08:51:48.291Z,9200
2017-06-13T08:52:49.025Z,10104
2017-06-13T08:53:49.760Z,10440
2017-06-13T08:54:50.489Z,10632
2017-06-13T08:55:51.225Z,11000
2017-06-13T08:56:51.959Z,10512
2017-06-13T08:57:52.690Z,10108
2017-06-13T08:58:53.421Z,8636
2017-06-13T08:59:54.154Z,7936
2017-06-13T09:00:54.886Z,7860
2017-06-13T09:01:55.641Z,8412
2017-06-13T09:02:56.374Z,9296
2017-06-13T09:03:57.108Z,10548
2017-06-13T09:04:57.841Z,12172
2017-06-13T09:05:58.573Z,14120
2017-06-13T09:06:59.307Z,16416
2017-06-13T09:08:00.040Z,17344
2017-06-13T09:09:00.775Z,19296
2017-06-13T09:10:01.531Z,17088
2017-06-13T09:11:02.262Z,16800
2017-06-13T09:12:02.999Z,18528
2017-06-13T09:13:03.732Z,19104
2017-06-13T09:14:04.489Z,45664
2017-06-13T09:15:05.222Z,21568
2017-06-13T09:16:05.960Z,15612
2017-06-13T09:17:06.692Z,11968
2017-06-13T09:18:07.424Z,10596
2017-06-13T09:19:08.157Z,9832
2017-06-13T09:20:08.890Z,8988
2017-06-13T09:21:09.622Z,9092
2017-06-13T09:22:10.355Z,10460
2017-06-13T09:23:11.087Z,13220
2017-06-13T09:24:11.822Z,15400
2017-06-13T09:25:12.554Z,23520
2017-06-13T09:26:13.288Z,17344
2017-06-13T09:27:14.021Z,14868
2017-06-13T09:28:14.757Z,15524
2017-06-13T09:29:15.491Z,16204
2017-06-13T09:30:16.225Z,17568
2017-06-13T09:31:16.958Z,21536
2017-06-13T09:32:17.692Z,20768
2017-06-13T09:33:18.425Z,16460
2017-06-13T09:34:19.159Z,15296
2017-06-13T09:35:19.893Z,14784
2017-06-13T09:36:20.654Z,14464
2017-06-13T09:37:21.382Z,14564
2017-06-13T09:38:22.116Z,14668
2017-06-13T09:39:22.851Z,15444
2017-06-13T09:40:23.585Z,16304
2017-06-13T09:41:24.318Z,17824
2017-06-13T09:42:25.054Z,18560
2017-06-13T09:43:25.786Z,23040
2017-06-13T09:44:26.520Z,21856
2017-06-13T09:45:27.254Z,66016
2017-06-13T09:46:27.987Z,28640
2017-06-13T09:47:28.720Z,31104
2017-06-13T09:48:29.454Z,33856
2017-06-13T09:49:30.213Z,29312
2017-06-13T09:50:30.950Z,29280
2017-06-13T09:51:31.690Z,45856
2017-06-13T09:52:32.428Z,34240
2017-06-13T09:53:33.162Z,31424
2017-06-13T09:54:33.899Z,28064
2017-06-13T09:55:34.634Z,26400
2017-06-13T09:56:35.371Z,25248
2017-06-13T09:57:36.109Z,26528
2017-06-13T09:58:36.846Z,30400
2017-06-13T09:59:37.588Z,47232
2017-06-13T10:00:38.328Z,58752
2017-06-13T10:01:39.068Z,39968
2017-06-13T10:02:39.814Z,29344
2017-06-13T10:03:40.549Z,19744
2017-06-13T10:04:41.291Z,16036
2017-06-13T10:05:42.034Z,13132
2017-06-13T10:06:42.774Z,11340
2017-06-13T10:07:43.538Z,9624
2017-06-13T10:08:44.278Z,7788
2017-06-13T10:09:45.012Z,6508
2017-06-13T10:10:45.746Z,6176
2017-06-13T10:11:46.484Z,7084
2017-06-13T10:12:47.218Z,8912
2017-06-13T10:13:47.957Z,11180
2017-06-13T10:14:48.694Z,13344
2017-06-13T10:15:49.428Z,16320
2017-06-13T10:16:50.165Z,21120
2017-06-13T10:17:50.899Z,21120
2017-06-13T10:18:51.638Z,21984
2017-06-13T10:19:52.374Z,22304
2017-06-13T10:20:53.115Z,25472
2017-06-13T10:21:53.854Z,38368
2017-06-13T10:22:54.594Z,35904
2017-06-13T10:23:55.330Z,24704
2017-06-13T10:24:56.068Z,19328
2017-06-13T10:25:56.808Z,15712
2017-06-13T10:26:57.547Z,13272
2017-06-13T10:27:58.286Z,11308
2017-06-13T10:28:59.021Z,9812
2017-06-13T10:29:59.780Z,8512
2017-06-13T10:31:00.511Z,7268
2017-06-13T10:32:01.248Z,6284
2017-06-13T10:33:01.983Z,5468
2017-06-13T10:34:02.717Z,5020
2017-06-13T10:35:03.448Z,4624
2017-06-13T10:36:04.183Z,4368
2017-06-13T10:37:04.914Z,4256
2017-06-13T10:38:05.670Z,4392
2017-06-13T10:39:06.404Z,4812
2017-06-13T10:40:07.135Z,5224
2017-06-13T10:41:07.867Z,5644
2017-06-13T10:42:08.600Z,6220
2017-06-13T10:43:09.330Z,7364
2017-06-13T10:44:10.064Z,8964
2017-06-13T10:45:10.796Z,10584
2017-06-13T10:46:11.531Z,12152
2017-06-13T10:47:12.264Z,13284
2017-06-13T10:48:12.996Z,13928
2017-06-13T10:49:13.732Z,14944
2017-06-13T10:50:14.466Z,15880
2017-06-13T10:51:15.197Z,18080
2017-06-13T10:52:15.930Z,18464
2017-06-13T10:53:16.664Z,19232
2017-06-13T10:54:17.396Z,21216
2017-06-13T10:55:18.128Z,31168
2017-06-13T10:56:18.868Z,87840
2017-06-13T10:57:19.603Z,33824
2017-06-13T10:58:20.338Z,21376
2017-06-13T10:59:21.099Z,18720
2017-06-13T11:00:21.837Z,14312
2017-06-13T11:01:22.574Z,10944
2017-06-13T11:02:23.306Z,9108
2017-06-13T11:03:24.041Z,8012
2017-06-13T11:04:24.775Z,7428
2017-06-13T11:05:25.510Z,7068
2017-06-13T11:06:26.244Z,6784
2017-06-13T11:07:26.976Z,6560
2017-06-13T11:08:27.707Z,6476
2017-06-13T11:09:28.444Z,6672
2017-06-13T11:10:29.179Z,7148
2017-06-13T11:11:29.908Z,7712
2017-06-13T11:12:30.642Z,8156
2017-06-13T11:13:31.372Z,8444
2017-06-13T11:14:32.105Z,8952
2017-06-13T11:15:32.838Z,9764
2017-06-13T11:16:33.571Z,9944
2017-06-13T11:17:34.306Z,10548
2017-06-13T11:18:35.038Z,11432
2017-06-13T11:19:35.771Z,12652
2017-06-13T11:20:36.501Z,14668
2017-06-13T11:21:37.238Z,16928
2017-06-13T11:22:37.968Z,20096
2017-06-13T11:23:38.701Z,21376
2017-06-13T11:24:39.435Z,18080
2017-06-13T11:25:40.168Z,16240
2017-06-13T11:26:40.901Z,15136
2017-06-13T11:27:41.639Z,14356
2017-06-13T11:28:42.371Z,13848
2017-06-13T11:29:43.104Z,13300
2017-06-13T11:30:43.841Z,12988
2017-06-13T11:31:44.573Z,12592
2017-06-13T11:32:45.308Z,12452
2017-06-13T11:33:46.043Z,12556
2017-06-13T11:34:46.775Z,12800
2017-06-13T11:35:47.510Z,13136
2017-06-13T11:36:48.245Z,13540
2017-06-13T11:37:48.978Z,14536
2017-06-13T11:38:49.711Z,15072
2017-06-13T11:39:50.443Z,15348
2017-06-13T11:40:51.180Z,15148
2017-06-13T11:41:51.937Z,15344
2017-06-13T11:42:52.674Z,15736
2017-06-13T11:43:53.404Z,16832
2017-06-13T11:44:54.139Z,18624
2017-06-13T11:45:54.875Z,15800
2017-06-13T11:46:55.608Z,13296
2017-06-13T11:47:56.340Z,11680
2017-06-13T11:48:57.074Z,10472
2017-06-13T11:49:57.807Z,9656
2017-06-13T11:50:58.540Z,9256
2017-06-13T11:51:59.275Z,9196
2017-06-13T11:53:00.006Z,9536
2017-06-13T11:54:00.758Z,10324
2017-06-13T11:55:01.472Z,11580
2017-06-13T11:56:02.204Z,13204
2017-06-13T11:57:02.938Z,14944
2017-06-13T11:58:03.673Z,17696
2017-06-13T11:59:04.425Z,17504
2017-06-13T12:00:05.160Z,16352
2017-06-13T12:01:05.891Z,16120
2017-06-13T12:02:06.624Z,16028
2017-06-13T12:03:07.359Z,16512
2017-06-13T12:04:08.093Z,17856
2017-06-13T12:05:08.823Z,19776
2017-06-13T12:06:09.561Z,40608
2017-06-13T12:07:10.293Z,26848
2017-06-13T12:08:11.028Z,30208
2017-06-13T12:09:11.763Z,31104
2017-06-13T12:10:12.500Z,48736
2017-06-13T12:11:13.234Z,52928
2017-06-13T12:12:13.973Z,32320
2017-06-13T12:13:14.715Z,27232
2017-06-13T12:14:15.451Z,24928
2017-06-13T12:15:16.197Z,22688
2017-06-13T12:16:16.930Z,19648
2017-06-13T12:17:17.671Z,18336
2017-06-13T12:18:18.412Z,17824
2017-06-13T12:19:19.150Z,17504
2017-06-13T12:20:19.888Z,16960
2017-06-13T12:21:20.627Z,16020
2017-06-13T12:22:21.365Z,15148
2017-06-13T12:23:22.106Z,14672
2017-06-13T12:24:22.846Z,15040
2017-06-13T12:25:23.587Z,16608
2017-06-13T12:26:24.327Z,16144
2017-06-13T12:27:25.068Z,15308
2017-06-13T12:28:25.831Z,13328
2017-06-13T12:29:26.574Z,12124
2017-06-13T12:30:27.311Z,10844
2017-06-13T12:31:28.047Z,9612
2017-06-13T12:32:28.782Z,8416
2017-06-13T12:33:29.519Z,7320
2017-06-13T12:34:30.261Z,6420
2017-06-13T12:35:30.992Z,5528
2017-06-13T12:36:31.729Z,5124
2017-06-13T12:37:32.466Z,4680
2017-06-13T12:38:33.203Z,4312
2017-06-13T12:39:33.936Z,4072
2017-06-13T12:40:34.671Z,3956
2017-06-13T12:41:35.406Z,3940
2017-06-13T12:42:36.163Z,3988
2017-06-13T12:43:36.895Z,4088
2017-06-13T12:44:37.626Z,4280
2017-06-13T12:45:38.358Z,4688
2017-06-13T12:46:39.089Z,5296
2017-06-13T12:47:39.844Z,6068
2017-06-13T12:48:40.576Z,6900
2017-06-13T12:49:41.307Z,7868
2017-06-13T12:50:42.038Z,9012
2017-06-13T12:51:42.772Z,10028
2017-06-13T12:52:43.505Z,10752
2017-06-13T12:53:44.237Z,10928
2017-06-13T12:54:44.971Z,10716
2017-06-13T12:55:45.706Z,10532
2017-06-13T12:56:46.441Z,10480
2017-06-13T12:57:47.174Z,10304
2017-06-13T12:58:47.905Z,9976
2017-06-13T12:59:48.636Z,9416
2017-06-13T13:00:49.371Z,8960
2017-06-13T13:01:50.101Z,8412
2017-06-13T13:02:50.833Z,7880
2017-06-13T13:03:51.563Z,7388
2017-06-13T13:04:52.298Z,6936
2017-06-13T13:05:53.025Z,6552
2017-06-13T13:06:53.756Z,6268
2017-06-13T13:07:54.495Z,6152
2017-06-13T13:08:55.248Z,6096
2017-06-13T13:09:55.981Z,6048
2017-06-13T13:10:56.710Z,5964
2017-06-13T13:11:57.444Z,5892
2017-06-13T13:12:58.196Z,5916
2017-06-13T13:13:58.948Z,5936
2017-06-13T13:14:59.678Z,6464
2017-06-13T13:16:00.408Z,7112
2017-06-13T13:17:01.140Z,7820
2017-06-13T13:18:01.873Z,8408
2017-06-13T13:19:02.606Z,8972
2017-06-13T13:20:03.340Z,9524
2017-06-13T13:21:04.070Z,10064
2017-06-13T13:22:04.801Z,10620
2017-06-13T13:23:05.536Z,10988
2017-06-13T13:24:06.271Z,11220
2017-06-13T13:25:07.003Z,11164
2017-06-13T13:26:07.736Z,11056
2017-06-13T13:27:08.466Z,10708
2017-06-13T13:28:09.200Z,10252
2017-06-13T13:29:09.931Z,10072
2017-06-13T13:30:10.665Z,10236
2017-06-13T13:31:11.396Z,10524
2017-06-13T13:32:12.134Z,10672
2017-06-13T13:33:12.862Z,10612
2017-06-13T13:34:13.594Z,10332
2017-06-13T13:35:14.326Z,9888
2017-06-13T13:36:15.059Z,9296
2017-06-13T13:37:15.787Z,8620
2017-06-13T13:38:16.519Z,7972
2017-06-13T13:39:17.255Z,7612
2017-06-13T13:40:17.986Z,7448
2017-06-13T13:41:18.743Z,7360